createdAt,value
2017-11-20T00:01:04.055Z,4.11
2017-11-20T00:02:30.355Z,4.00
2017-11-20T00:03:57.509Z,3.99
2017-11-20T00:05:25.841Z,3.84
2017-11-20T00:06:51.962Z,3.78
2017-11-20T00:08:19.193Z,3.80
2017-11-20T00:09:47.538Z,3.71
2017-11-20T00:11:14.645Z,3.72
2017-11-20T00:12:41.978Z,3.63
2017-11-20T00:14:09.177Z,3.52
2017-11-20T00:15:36.352Z,3.54
2017-11-20T00:17:03.684Z,3.51
2017-11-20T00:18:29.819Z,3.47
2017-11-20T00:19:57.160Z,3.38
2017-11-20T00:21:24.337Z,3.33
2017-11-20T00:22:51.605Z,3.27
2017-11-20T00:24:18.948Z,3.26
2017-11-20T00:25:46.160Z,3.23
2017-11-20T00:27:13.376Z,3.20
2017-11-20T00:28:41.659Z,3.16
2017-11-20T00:30:07.937Z,3.18
2017-11-20T00:31:35.183Z,3.28
2017-11-20T00:33:02.428Z,3.34
2017-11-20T00:34:29.625Z,3.35
2017-11-20T00:35:56.794Z,3.30
2017-11-20T00:37:24.162Z,3.31
2017-11-20T00:38:51.311Z,3.28
2017-11-20T00:40:18.616Z,3.25
2017-11-20T00:41:45.949Z,3.22
2017-11-20T00:43:14.317Z,3.20
2017-11-20T00:44:40.380Z,3.28
2017-11-20T00:46:07.540Z,3.33
2017-11-20T00:47:34.772Z,3.32
2017-11-20T00:49:01.883Z,3.29
2017-11-20T00:50:29.229Z,3.32
2017-11-20T00:51:56.327Z,3.34
2017-11-20T00:53:23.464Z,3.24
2017-11-20T00:54:50.707Z,3.25
2017-11-20T00:56:18.012Z,3.23
2017-11-20T00:57:46.307Z,3.19
2017-11-20T00:59:13.286Z,3.08
2017-11-20T01:00:40.527Z,2.99
2017-11-20T01:02:07.601Z,3.03
2017-11-20T01:03:33.953Z,3.08
2017-11-20T01:05:01.132Z,3.06
2017-11-20T01:06:29.315Z,3.06
2017-11-20T01:07:56.507Z,3.06
2017-11-20T01:09:22.557Z,3.00
2017-11-20T01:10:49.880Z,3.01
2017-11-20T01:12:17.264Z,3.05
2017-11-20T01:13:44.656Z,3.02
2017-11-20T01:15:12.952Z,2.95
2017-11-20T01:16:39.200Z,2.90
2017-11-20T01:18:06.437Z,2.87
2017-11-20T01:19:34.727Z,2.86
2017-11-20T01:21:01.029Z,2.89
2017-11-20T01:22:28.282Z,2.89
2017-11-20T01:23:55.274Z,2.93
2017-11-20T01:25:22.621Z,2.84
2017-11-20T01:26:49.684Z,2.79
2017-11-20T01:28:16.906Z,2.77
2017-11-20T01:29:44.262Z,2.79
2017-11-20T01:31:11.576Z,2.76
2017-11-20T01:32:38.789Z,2.83
2017-11-20T01:34:06.005Z,2.82
2017-11-20T01:35:33.109Z,2.86
2017-11-20T01:37:00.376Z,2.89
2017-11-20T01:38:27.581Z,2.86
2017-11-20T01:39:55.895Z,2.85
2017-11-20T01:41:22.217Z,2.85
2017-11-20T01:42:49.397Z,2.95
2017-11-20T01:44:17.455Z,2.99
2017-11-20T01:45:44.709Z,3.01
2017-11-20T01:47:11.007Z,3.10
2017-11-20T01:48:38.328Z,3.18
2017-11-20T01:50:06.309Z,3.25
2017-11-20T01:51:33.821Z,3.29
2017-11-20T01:52:59.969Z,3.31
2017-11-20T01:54:27.218Z,3.35
2017-11-20T01:55:54.438Z,3.34
2017-11-20T01:57:22.683Z,3.29
2017-11-20T01:58:48.994Z,3.23
2017-11-20T02:00:17.230Z,3.20
2017-11-20T02:01:43.360Z,3.20
2017-11-20T02:03:11.642Z,3.12
2017-11-20T02:04:38.640Z,3.06
2017-11-20T02:06:04.856Z,2.99
2017-11-20T02:07:32.061Z,3.01
2017-11-20T02:08:59.313Z,3.08
2017-11-20T02:10:27.388Z,3.04
2017-11-20T02:11:53.718Z,3.04
2017-11-20T02:13:21.957Z,3.05
2017-11-20T02:14:49.129Z,3.02
2017-11-20T02:16:15.228Z,3.09
2017-11-20T02:17:42.589Z,3.04
2017-11-20T02:19:11.153Z,3.04
2017-11-20T02:20:38.410Z,3.04
2017-11-20T02:22:05.618Z,3.04
2017-11-20T02:23:32.921Z,3.02
2017-11-20T02:24:59.116Z,3.03
2017-11-20T02:26:26.300Z,3.11
2017-11-20T02:27:53.450Z,3.17
2017-11-20T02:29:21.752Z,3.14
2017-11-20T02:30:47.955Z,3.13
2017-11-20T02:32:16.274Z,3.07
2017-11-20T02:33:42.544Z,3.07
2017-11-20T02:35:09.737Z,3.12
2017-11-20T02:36:36.922Z,3.17
2017-11-20T02:38:05.199Z,3.17
2017-11-20T02:39:32.281Z,3.16
2017-11-20T02:40:59.480Z,3.15
2017-11-20T02:42:25.658Z,3.24
2017-11-20T02:43:52.947Z,3.25
2017-11-20T02:45:21.299Z,3.34
2017-11-20T02:46:47.422Z,3.38
2017-11-20T02:48:14.719Z,3.40
2017-11-20T02:49:41.964Z,3.38
2017-11-20T02:51:09.442Z,3.36
2017-11-20T02:52:36.577Z,3.31
2017-11-20T02:54:03.658Z,3.27
2017-11-20T02:55:30.989Z,3.33
2017-11-20T02:56:58.255Z,3.37
2017-11-20T02:58:25.371Z,3.39
2017-11-20T02:59:53.539Z,3.41
2017-11-20T03:01:20.862Z,3.44
2017-11-20T03:02:46.963Z,3.45
2017-11-20T03:04:15.311Z,3.46
2017-11-20T03:05:41.637Z,3.48
2017-11-20T03:07:08.889Z,3.55
2017-11-20T03:08:36.150Z,3.56
2017-11-20T03:10:04.450Z,3.55
2017-11-20T03:11:30.683Z,3.55
2017-11-20T03:12:58.019Z,3.58
2017-11-20T03:14:25.737Z,3.61
2017-11-20T03:15:52.980Z,3.63
2017-11-20T03:17:20.341Z,3.62
2017-11-20T03:18:46.393Z,3.62
2017-11-20T03:20:13.619Z,3.61
2017-11-20T03:21:41.837Z,3.57
2017-11-20T03:23:08.153Z,3.52
2017-11-20T03:24:36.249Z,3.49
2017-11-20T03:26:02.471Z,3.54
2017-11-20T03:27:29.618Z,3.57
2017-11-20T03:28:56.778Z,3.57
2017-11-20T03:30:24.062Z,3.56
2017-11-20T03:31:52.317Z,3.57
2017-11-20T03:33:19.644Z,3.58
2017-11-20T03:34:47.052Z,3.65
2017-11-20T03:36:14.078Z,3.68
2017-11-20T03:37:41.415Z,3.62
2017-11-20T03:39:07.611Z,3.55
2017-11-20T03:40:34.695Z,3.55
2017-11-20T03:42:01.906Z,3.58
2017-11-20T03:43:29.055Z,3.52
2017-11-20T03:44:56.129Z,3.53
2017-11-20T03:46:23.465Z,3.54
2017-11-20T03:47:50.548Z,3.53
2017-11-20T03:49:17.848Z,3.54
2017-11-20T03:50:45.104Z,3.57
2017-11-20T03:52:12.327Z,3.61
2017-11-20T03:53:40.601Z,3.62
2017-11-20T03:55:06.844Z,3.70
2017-11-20T03:56:34.085Z,3.72
2017-11-20T03:58:01.296Z,3.74
2017-11-20T03:59:29.312Z,3.73
2017-11-20T04:00:55.370Z,3.79
2017-11-20T04:02:23.452Z,3.81
2017-11-20T04:03:50.883Z,3.88
2017-11-20T04:05:17.171Z,3.85
2017-11-20T04:06:44.184Z,3.90
2017-11-20T04:08:12.662Z,3.88
2017-11-20T04:09:38.789Z,3.87
2017-11-20T04:11:07.003Z,3.91
2017-11-20T04:12:34.016Z,3.97
2017-11-20T04:14:00.111Z,3.95
2017-11-20T04:15:27.353Z,3.96
2017-11-20T04:16:54.627Z,4.03
2017-11-20T04:18:21.809Z,4.10
2017-11-20T04:19:49.049Z,4.15
2017-11-20T04:21:16.455Z,4.18
2017-11-20T04:22:43.740Z,4.22
2017-11-20T04:24:11.988Z,4.23
2017-11-20T04:25:39.370Z,4.23
2017-11-20T04:27:05.619Z,4.23
2017-11-20T04:28:32.900Z,4.23
2017-11-20T04:30:00.135Z,4.24
2017-11-20T04:31:28.315Z,4.25
2017-11-20T04:32:54.307Z,4.27
2017-11-20T04:34:21.640Z,4.25
2017-11-20T04:35:49.847Z,4.29
2017-11-20T04:37:16.198Z,4.31
2017-11-20T04:38:43.416Z,4.35
2017-11-20T04:40:10.936Z,4.38
2017-11-20T04:41:39.248Z,4.38
2017-11-20T04:43:06.356Z,4.41
2017-11-20T04:44:32.491Z,4.40
2017-11-20T04:45:59.720Z,4.45
2017-11-20T04:47:26.916Z,4.46
2017-11-20T04:48:55.142Z,4.43
2017-11-20T04:50:21.305Z,4.45
2017-11-20T04:51:48.482Z,4.39
2017-11-20T04:53:15.595Z,4.34
2017-11-20T04:54:42.809Z,4.33
2017-11-20T04:56:09.932Z,4.35
2017-11-20T04:57:38.287Z,4.35
2017-11-20T04:59:04.397Z,4.33
2017-11-20T05:00:32.503Z,4.35
2017-11-20T05:01:59.688Z,4.39
2017-11-20T05:03:25.797Z,4.36
2017-11-20T05:04:54.147Z,4.35
2017-11-20T05:06:21.353Z,4.36
2017-11-20T05:07:47.555Z,4.34
2017-11-20T05:09:14.720Z,4.35
2017-11-20T05:10:42.876Z,4.38
2017-11-20T05:12:10.182Z,4.42
2017-11-20T05:13:36.300Z,4.49
2017-11-20T05:15:04.653Z,4.52
2017-11-20T05:16:30.884Z,4.55
2017-11-20T05:17:57.915Z,4.49
2017-11-20T05:19:25.032Z,4.50
2017-11-20T05:20:52.402Z,4.52
2017-11-20T05:22:20.622Z,4.51
2017-11-20T05:23:47.816Z,4.47
2017-11-20T05:25:15.091Z,4.45
2017-11-20T05:26:42.142Z,4.42
2017-11-20T05:28:08.424Z,4.41
2017-11-20T05:29:36.521Z,4.44
2017-11-20T05:31:02.767Z,4.45
2017-11-20T05:32:30.013Z,4.47
2017-11-20T05:33:57.080Z,4.46
2017-11-20T05:35:24.332Z,4.44
2017-11-20T05:36:51.421Z,4.43
2017-11-20T05:38:19.717Z,4.43
2017-11-20T05:39:46.926Z,4.47
2017-11-20T05:41:13.171Z,4.52
2017-11-20T05:42:41.305Z,4.50
2017-11-20T05:44:08.552Z,4.51
2017-11-20T05:45:34.726Z,4.52
2017-11-20T05:47:01.999Z,4.54
2017-11-20T05:48:30.180Z,4.57
2017-11-20T05:49:56.457Z,4.55
2017-11-20T05:51:23.673Z,4.58
2017-11-20T05:52:51.724Z,4.58
2017-11-20T05:54:17.901Z,4.56
2017-11-20T05:55:45.265Z,4.57
2017-11-20T05:57:12.507Z,4.50
2017-11-20T05:58:40.764Z,4.50
2017-11-20T06:00:07.065Z,4.46
2017-11-20T06:01:35.154Z,4.39
2017-11-20T06:03:01.470Z,4.40
2017-11-20T06:04:29.687Z,4.35
2017-11-20T06:05:56.654Z,4.29
2017-11-20T06:07:24.068Z,4.30
2017-11-20T06:08:50.231Z,4.27
2017-11-20T06:10:23.706Z,4.22
2017-11-20T06:11:45.651Z,4.23
2017-11-20T06:13:12.840Z,4.28
2017-11-20T06:14:38.916Z,4.33
2017-11-20T06:16:06.353Z,4.34
2017-11-20T06:17:34.629Z,4.34
2017-11-20T06:19:01.963Z,4.31
2017-11-20T06:20:28.099Z,4.31
2017-11-20T06:21:56.125Z,4.34
2017-11-20T06:23:22.429Z,4.36
2017-11-20T06:24:49.561Z,4.37
2017-11-20T06:26:16.812Z,4.38
2017-11-20T06:27:45.127Z,4.39
2017-11-20T06:29:11.352Z,4.33
2017-11-20T06:30:38.586Z,4.27
2017-11-20T06:32:05.897Z,4.22
2017-11-20T06:33:34.181Z,4.21
2017-11-20T06:35:00.393Z,4.16
2017-11-20T06:36:27.549Z,4.16
2017-11-20T06:37:54.657Z,4.18
2017-11-20T06:39:21.871Z,4.17
2017-11-20T06:40:49.098Z,4.18
2017-11-20T06:42:16.375Z,4.18
2017-11-20T06:43:43.574Z,4.17
2017-11-20T06:45:10.740Z,4.16
2017-11-20T06:46:38.215Z,4.15
2017-11-20T06:48:05.068Z,4.20
2017-11-20T06:49:33.453Z,4.22
2017-11-20T06:51:00.603Z,4.18
2017-11-20T06:52:26.640Z,4.18
2017-11-20T06:53:53.789Z,4.18
2017-11-20T06:55:22.036Z,4.19
2017-11-20T06:56:49.224Z,4.21
2017-11-20T06:58:15.578Z,4.19
2017-11-20T06:59:43.943Z,4.19
2017-11-20T07:01:10.143Z,4.23
2017-11-20T07:02:37.353Z,4.26
2017-11-20T07:04:05.312Z,4.30
2017-11-20T07:05:31.572Z,4.30
2017-11-20T07:06:58.743Z,4.30
2017-11-20T07:08:25.817Z,4.29
2017-11-20T07:09:53.091Z,4.31
2017-11-20T07:11:21.394Z,4.30
2017-11-20T07:12:47.489Z,4.32
2017-11-20T07:14:17.576Z,4.32
2017-11-20T07:15:42.772Z,4.32
2017-11-20T07:17:10.143Z,4.34
2017-11-20T07:18:36.240Z,4.35
2017-11-20T07:20:03.429Z,4.36
2017-11-20T07:21:30.437Z,4.39
2017-11-20T07:22:57.721Z,4.39
2017-11-20T07:24:24.923Z,4.39
2017-11-20T07:25:52.230Z,4.46
2017-11-20T07:27:19.281Z,4.50
2017-11-20T07:28:46.598Z,4.53
2017-11-20T07:30:13.773Z,4.59
2017-11-20T07:31:41.054Z,4.58
2017-11-20T07:33:08.251Z,4.61
2017-11-20T07:34:35.478Z,4.61
2017-11-20T07:36:02.488Z,4.62
2017-11-20T07:37:29.645Z,4.58
2017-11-20T07:38:56.840Z,4.57
2017-11-20T07:40:24.070Z,4.51
2017-11-20T07:41:51.319Z,4.50
2017-11-20T07:43:18.673Z,4.47
2017-11-20T07:44:46.930Z,4.48
2017-11-20T07:46:13.963Z,4.52
2017-11-20T07:47:40.315Z,4.50
2017-11-20T07:49:07.671Z,4.46
2017-11-20T07:50:35.721Z,4.41
2017-11-20T07:52:02.021Z,4.40
2017-11-20T07:53:28.984Z,4.43
2017-11-20T07:54:56.412Z,4.45
2017-11-20T07:56:23.656Z,4.47
2017-11-20T07:57:50.892Z,4.48
2017-11-20T07:59:18.162Z,4.44
2017-11-20T08:00:45.401Z,4.39
2017-11-20T08:02:12.717Z,4.41
2017-11-20T08:03:40.039Z,4.41
2017-11-20T08:05:07.178Z,4.40
2017-11-20T08:06:35.424Z,4.36
2017-11-20T08:08:02.748Z,4.36
2017-11-20T08:09:28.910Z,4.32
2017-11-20T08:10:56.067Z,4.28
2017-11-20T08:12:24.293Z,4.25
2017-11-20T08:13:51.730Z,4.28
2017-11-20T08:15:18.655Z,4.27
2017-11-20T08:16:45.042Z,4.26
2017-11-20T08:18:13.348Z,4.32
2017-11-20T08:19:40.658Z,4.33
2017-11-20T08:21:07.672Z,4.34
2017-11-20T08:22:33.899Z,4.36
2017-11-20T08:24:01.116Z,4.39
2017-11-20T08:25:28.166Z,4.40
2017-11-20T08:26:56.298Z,4.46
2017-11-20T08:28:23.581Z,4.49
2017-11-20T08:29:49.959Z,4.46
2017-11-20T08:31:17.275Z,4.44
2017-11-20T08:32:44.354Z,4.49
2017-11-20T08:34:12.765Z,4.53
2017-11-20T08:35:39.074Z,4.59
2017-11-20T08:37:06.338Z,4.58
2017-11-20T08:38:33.671Z,4.59
2017-11-20T08:40:01.843Z,4.59
2017-11-20T08:41:29.195Z,4.54
2017-11-20T08:42:55.424Z,4.51
2017-11-20T08:44:22.655Z,4.53
2017-11-20T08:45:49.966Z,4.54
2017-11-20T08:47:17.401Z,4.58
2017-11-20T08:48:45.569Z,4.64
2017-11-20T08:50:12.443Z,4.69
2017-11-20T08:51:39.859Z,4.75
2017-11-20T08:53:06.223Z,4.77
2017-11-20T08:54:34.452Z,4.77
2017-11-20T08:56:01.777Z,4.77
2017-11-20T08:57:28.920Z,4.75
2017-11-20T08:58:54.689Z,4.77
2017-11-20T09:00:23.059Z,4.81
2017-11-20T09:01:49.158Z,4.85
2017-11-20T09:03:17.428Z,4.87
2017-11-20T09:04:43.749Z,4.91
2017-11-20T09:06:11.023Z,4.91
2017-11-20T09:07:38.235Z,4.95
2017-11-20T09:09:05.543Z,4.99
2017-11-20T09:10:32.845Z,5.02
2017-11-20T09:12:00.085Z,5.06
2017-11-20T09:13:28.131Z,5.05
2017-11-20T09:14:54.473Z,5.04
2017-11-20T09:16:21.625Z,5.05
2017-11-20T09:17:48.906Z,5.03
2017-11-20T09:19:16.275Z,5.04
2017-11-20T09:20:44.453Z,5.09
2017-11-20T09:22:11.024Z,5.09
2017-11-20T09:23:39.248Z,5.08
2017-11-20T09:25:06.720Z,5.09
2017-11-20T09:26:33.097Z,5.15
2017-11-20T09:28:00.240Z,5.16
2017-11-20T09:29:27.561Z,5.18
2017-11-20T09:30:55.681Z,5.19
2017-11-20T09:32:21.939Z,5.16
2017-11-20T09:33:50.193Z,5.15
2017-11-20T09:35:16.394Z,5.17
2017-11-20T09:36:43.717Z,5.17
2017-11-20T09:38:10.957Z,5.16
2017-11-20T09:39:38.138Z,5.18
2017-11-20T09:41:05.382Z,5.19
2017-11-20T09:42:33.813Z,5.22
2017-11-20T09:44:00.771Z,5.25
2017-11-20T09:45:28.208Z,5.27
2017-11-20T09:46:54.261Z,5.31
2017-11-20T09:48:21.642Z,5.34
2017-11-20T09:49:48.919Z,5.36
2017-11-20T09:51:16.019Z,5.42
2017-11-20T09:52:44.156Z,5.42
2017-11-20T09:54:11.449Z,5.42
2017-11-20T09:55:37.735Z,5.45
2017-11-20T09:57:06.088Z,5.48
2017-11-20T09:58:32.237Z,5.52
2017-11-20T10:00:00.547Z,5.53
2017-11-20T10:01:26.784Z,5.57
2017-11-20T10:02:54.138Z,5.60
2017-11-20T10:04:21.508Z,5.65
2017-11-20T10:05:49.697Z,5.70
2017-11-20T10:07:16.085Z,5.76
2017-11-20T10:08:43.323Z,5.82
2017-11-20T10:10:10.497Z,5.87
2017-11-20T10:11:37.772Z,5.91
2017-11-20T10:13:05.095Z,5.93
2017-11-20T10:14:32.371Z,5.98
2017-11-20T10:16:00.324Z,6.02
2017-11-20T10:17:26.754Z,6.03
2017-11-20T10:18:53.947Z,6.06
2017-11-20T10:20:21.083Z,6.10
2017-11-20T10:21:48.512Z,6.15
2017-11-20T10:23:16.892Z,6.18
2017-11-20T10:24:43.156Z,6.21
2017-11-20T10:26:10.547Z,6.23
2017-11-20T10:27:37.837Z,6.25
2017-11-20T10:29:04.704Z,6.27
2017-11-20T10:30:31.948Z,6.27
2017-11-20T10:31:59.213Z,6.26
2017-11-20T10:33:27.321Z,6.21
2017-11-20T10:34:53.804Z,6.17
2017-11-20T10:36:21.162Z,6.17
2017-11-20T10:37:49.433Z,6.16
2017-11-20T10:39:15.739Z,6.16
2017-11-20T10:40:43.135Z,6.14
2017-11-20T10:42:10.454Z,6.14
2017-11-20T10:43:37.853Z,6.20
2017-11-20T10:45:06.056Z,6.25
2017-11-20T10:46:32.231Z,6.31
2017-11-20T10:48:00.573Z,6.38
2017-11-20T10:49:27.598Z,6.34
2017-11-20T10:50:53.943Z,6.33
2017-11-20T10:52:21.119Z,6.35
2017-11-20T10:53:48.503Z,6.33
2017-11-20T10:55:16.788Z,6.36
2017-11-20T10:56:42.956Z,6.39
2017-11-20T10:58:10.269Z,6.42
2017-11-20T10:59:37.604Z,6.43
2017-11-20T11:01:04.762Z,6.43
2017-11-20T11:02:32.944Z,6.47
2017-11-20T11:04:00.294Z,6.45
2017-11-20T11:05:27.621Z,6.43
2017-11-20T11:06:53.801Z,6.43
2017-11-20T11:08:21.164Z,6.50
2017-11-20T11:09:49.527Z,6.50
2017-11-20T11:11:15.673Z,6.54
2017-11-20T11:12:42.812Z,6.57
2017-11-20T11:14:10.151Z,6.57
2017-11-20T11:15:38.453Z,6.62
2017-11-20T11:17:04.763Z,6.63
2017-11-20T11:18:32.099Z,6.61
2017-11-20T11:20:00.282Z,6.61
2017-11-20T11:21:27.357Z,6.61
2017-11-20T11:22:53.665Z,6.69
2017-11-20T11:24:20.974Z,6.78
2017-11-20T11:25:49.177Z,6.83
2017-11-20T11:27:15.560Z,6.89
2017-11-20T11:28:42.704Z,6.97
2017-11-20T11:30:10.926Z,7.06
2017-11-20T11:31:37.226Z,7.11
2017-11-20T11:33:05.620Z,7.14
2017-11-20T11:34:31.822Z,7.17
2017-11-20T11:35:59.077Z,7.12
2017-11-20T11:37:27.195Z,7.14
2017-11-20T11:38:53.581Z,7.17
2017-11-20T11:40:20.809Z,7.20
2017-11-20T11:41:48.109Z,7.16
2017-11-20T11:43:15.338Z,7.15
2017-11-20T11:44:42.534Z,7.13
2017-11-20T11:46:09.867Z,7.16
2017-11-20T11:47:38.028Z,7.15
2017-11-20T11:49:05.383Z,7.11
2017-11-20T11:50:31.790Z,7.11
2017-11-20T11:51:59.114Z,7.16
2017-11-20T11:53:26.237Z,7.18
2017-11-20T11:54:53.549Z,7.21
2017-11-20T11:56:21.994Z,7.24
2017-11-20T11:57:48.120Z,7.28
2017-11-20T11:59:15.498Z,7.24
2017-11-20T12:00:43.845Z,7.25
2017-11-20T12:02:09.590Z,7.26
2017-11-20T12:03:38.004Z,7.31
2017-11-20T12:05:05.305Z,7.31
2017-11-20T12:06:31.444Z,7.34
2017-11-20T12:07:59.643Z,7.40
2017-11-20T12:09:25.797Z,7.43
2017-11-20T12:10:52.970Z,7.43
2017-11-20T12:12:20.248Z,7.41
2017-11-20T12:13:48.557Z,7.47
2017-11-20T12:15:14.733Z,7.53
2017-11-20T12:16:42.049Z,7.58
2017-11-20T12:18:10.474Z,7.61
2017-11-20T12:19:37.700Z,7.60
2017-11-20T12:21:04.008Z,7.59
2017-11-20T12:22:31.368Z,7.54
2017-11-20T12:23:58.675Z,7.53
2017-11-20T12:25:25.920Z,7.56
2017-11-20T12:26:54.175Z,7.61
2017-11-20T12:28:20.404Z,7.64
2017-11-20T12:29:47.735Z,7.58
2017-11-20T12:31:16.006Z,7.60
2017-11-20T12:32:42.093Z,7.58
2017-11-20T12:34:09.407Z,7.57
2017-11-20T12:35:37.756Z,7.57
2017-11-20T12:37:04.985Z,7.52
2017-11-20T12:38:32.287Z,7.46
2017-11-20T12:39:58.477Z,7.44
2017-11-20T12:41:25.549Z,7.37
2017-11-20T12:42:52.765Z,7.30
2017-11-20T12:44:20.071Z,7.22
2017-11-20T12:45:47.286Z,7.17
2017-11-20T12:47:14.491Z,7.18
2017-11-20T12:48:41.852Z,7.18
2017-11-20T12:50:09.130Z,7.17
2017-11-20T12:51:36.383Z,7.19
2017-11-20T12:53:03.663Z,7.21
2017-11-20T12:54:32.019Z,7.18
2017-11-20T12:55:58.161Z,7.14
2017-11-20T12:57:25.341Z,7.14
2017-11-20T12:58:52.508Z,7.11
2017-11-20T13:00:19.658Z,7.08
2017-11-20T13:01:46.969Z,7.04
2017-11-20T13:03:15.372Z,7.05
2017-11-20T13:04:41.630Z,7.04
2017-11-20T13:06:08.863Z,7.09
2017-11-20T13:07:36.344Z,7.10
2017-11-20T13:09:03.557Z,7.14
2017-11-20T13:10:30.881Z,7.13
2017-11-20T13:11:58.075Z,7.12
2017-11-20T13:13:25.109Z,7.13
2017-11-20T13:14:52.431Z,7.08
2017-11-20T13:16:19.902Z,7.04
2017-11-20T13:17:47.073Z,7.02
2017-11-20T13:19:14.189Z,6.98
2017-11-20T13:20:42.449Z,6.96
2017-11-20T13:22:08.753Z,6.95
2017-11-20T13:23:36.093Z,6.98
2017-11-20T13:25:03.462Z,6.97
2017-11-20T13:26:30.675Z,6.98
2017-11-20T13:27:57.790Z,6.99
2017-11-20T13:29:24.874Z,7.06
2017-11-20T13:30:52.111Z,7.08
2017-11-20T13:32:19.210Z,7.03
2017-11-20T13:33:46.526Z,7.01
2017-11-20T13:35:14.841Z,7.01
2017-11-20T13:36:41.326Z,6.99
2017-11-20T13:38:08.620Z,7.04
2017-11-20T13:39:35.901Z,7.06
2017-11-20T13:41:03.221Z,7.09
2017-11-20T13:42:30.375Z,7.09
2017-11-20T13:43:57.600Z,7.10
2017-11-20T13:45:25.772Z,7.03
2017-11-20T13:46:51.906Z,6.97
2017-11-20T13:48:20.226Z,7.00
2017-11-20T13:49:46.451Z,7.01
2017-11-20T13:51:13.857Z,7.06
2017-11-20T13:52:41.238Z,7.10
2017-11-20T13:54:08.375Z,7.08
2017-11-20T13:55:35.758Z,7.08
2017-11-20T13:57:03.990Z,7.07
2017-11-20T13:58:30.251Z,7.03
2017-11-20T13:59:58.521Z,6.98
2017-11-20T14:01:24.476Z,6.97
2017-11-20T14:02:51.620Z,6.91
2017-11-20T14:04:19.066Z,6.86
2017-11-20T14:05:47.485Z,6.85
2017-11-20T14:07:13.871Z,6.82
2017-11-20T14:08:40.847Z,6.82
2017-11-20T14:10:08.213Z,6.83
2017-11-20T14:11:36.492Z,6.82
2017-11-20T14:13:02.762Z,6.83
2017-11-20T14:14:30.195Z,6.82
2017-11-20T14:15:57.455Z,6.77
2017-11-20T14:17:24.733Z,6.75
2017-11-20T14:18:52.060Z,6.72
2017-11-20T14:20:19.261Z,6.67
2017-11-20T14:21:46.639Z,6.62
2017-11-20T14:23:13.963Z,6.59
2017-11-20T14:24:42.285Z,6.64
2017-11-20T14:26:08.528Z,6.64
2017-11-20T14:27:35.781Z,6.63
2017-11-20T14:29:04.233Z,6.64
2017-11-20T14:30:30.269Z,6.64
2017-11-20T14:31:57.444Z,6.61
2017-11-20T14:33:24.601Z,6.55
2017-11-20T14:34:51.963Z,6.53
2017-11-20T14:36:20.272Z,6.52
2017-11-20T14:37:46.449Z,6.54
2017-11-20T14:39:14.893Z,6.58
2017-11-20T14:40:41.221Z,6.61
2017-11-20T14:42:08.366Z,6.64
2017-11-20T14:43:35.497Z,6.67
2017-11-20T14:45:02.749Z,6.67
2017-11-20T14:46:29.997Z,6.68
2017-11-20T14:47:57.249Z,6.70
2017-11-20T14:49:24.288Z,6.65
2017-11-20T14:50:51.713Z,6.55
2017-11-20T14:52:18.975Z,6.46
2017-11-20T14:53:46.163Z,6.42
2017-11-20T14:55:13.340Z,6.42
2017-11-20T14:56:40.572Z,6.38
2017-11-20T14:58:07.939Z,6.35
2017-11-20T14:59:36.060Z,6.34
2017-11-20T15:01:02.203Z,6.37
2017-11-20T15:02:29.624Z,6.38
2017-11-20T15:03:56.717Z,6.39
2017-11-20T15:05:24.131Z,6.42
2017-11-20T15:06:51.398Z,6.36
2017-11-20T15:08:19.720Z,6.32
2017-11-20T15:09:46.070Z,6.30
2017-11-20T15:11:13.265Z,6.26
2017-11-20T15:12:41.378Z,6.27
2017-11-20T15:14:07.678Z,6.27
2017-11-20T15:15:34.773Z,6.30
2017-11-20T15:17:02.038Z,6.29
2017-11-20T15:18:29.095Z,6.19
2017-11-20T15:19:57.219Z,6.13
2017-11-20T15:21:23.647Z,6.16
2017-11-20T15:22:50.989Z,6.14
2017-11-20T15:24:18.358Z,6.16
2017-11-20T15:25:45.722Z,6.12
2017-11-20T15:27:12.944Z,6.06
2017-11-20T15:28:40.145Z,6.02
2017-11-20T15:30:08.273Z,5.96
2017-11-20T15:31:34.482Z,5.92
2017-11-20T15:33:01.854Z,5.93
2017-11-20T15:34:29.174Z,5.94
2017-11-20T15:35:57.302Z,5.90
2017-11-20T15:37:24.470Z,5.87
2017-11-20T15:38:50.792Z,5.82
2017-11-20T15:40:17.924Z,5.86
2017-11-20T15:41:46.203Z,5.87
2017-11-20T15:43:12.382Z,5.82
2017-11-20T15:44:39.499Z,5.81
2017-11-20T15:46:08.057Z,5.86
2017-11-20T15:47:34.293Z,5.83
2017-11-20T15:49:02.564Z,5.85
2017-11-20T15:50:29.721Z,5.86
2017-11-20T15:51:55.992Z,5.84
2017-11-20T15:53:23.113Z,5.86
2017-11-20T15:54:50.456Z,5.86
2017-11-20T15:56:18.604Z,5.83
2017-11-20T15:57:44.891Z,5.77
2017-11-20T15:59:11.986Z,5.75
2017-11-20T16:00:39.222Z,5.70
2017-11-20T16:02:07.278Z,5.67
2017-11-20T16:03:34.676Z,5.60
2017-11-20T16:05:00.613Z,5.61
2017-11-20T16:06:28.867Z,5.58
2017-11-20T16:07:55.127Z,5.50
2017-11-20T16:09:22.440Z,5.46
2017-11-20T16:10:49.659Z,5.42
2017-11-20T16:12:16.967Z,5.36
2017-11-20T16:13:45.196Z,5.31
2017-11-20T16:15:11.401Z,5.28
2017-11-20T16:16:38.603Z,5.28
2017-11-20T16:18:07.011Z,5.31
2017-11-20T16:19:33.081Z,5.34
2017-11-20T16:21:00.322Z,5.36
2017-11-20T16:22:28.676Z,5.36
2017-11-20T16:23:55.008Z,5.36
2017-11-20T16:25:22.359Z,5.36
2017-11-20T16:26:49.588Z,5.35
2017-11-20T16:28:16.771Z,5.36
2017-11-20T16:29:44.026Z,5.37
2017-11-20T16:31:11.287Z,5.41
2017-11-20T16:32:38.352Z,5.44
2017-11-20T16:34:05.387Z,5.46
2017-11-20T16:35:32.686Z,5.46
2017-11-20T16:37:00.919Z,5.47
2017-11-20T16:38:28.096Z,5.53
2017-11-20T16:39:54.177Z,5.58
2017-11-20T16:41:21.456Z,5.62
2017-11-20T16:42:48.776Z,5.65
2017-11-20T16:44:17.220Z,5.69
2017-11-20T16:45:44.237Z,5.72
2017-11-20T16:47:10.585Z,5.76
2017-11-20T16:48:37.746Z,5.79
2017-11-20T16:50:05.969Z,5.79
2017-11-20T16:51:31.987Z,5.79
2017-11-20T16:53:00.175Z,5.79
2017-11-20T16:54:26.335Z,5.74
2017-11-20T16:55:53.580Z,5.77
2017-11-20T16:57:20.799Z,5.79
2017-11-20T16:58:48.023Z,5.82
2017-11-20T17:00:16.258Z,5.82
2017-11-20T17:01:42.626Z,5.83
2017-11-20T17:03:09.946Z,5.85
2017-11-20T17:04:37.239Z,5.87
2017-11-20T17:06:05.339Z,5.89
2017-11-20T17:07:31.548Z,5.90
2017-11-20T17:08:58.640Z,5.91
2017-11-20T17:10:25.882Z,5.93
2017-11-20T17:11:52.903Z,5.95
2017-11-20T17:13:20.121Z,5.95
2017-11-20T17:14:47.524Z,5.96
2017-11-20T17:16:14.479Z,5.97
2017-11-20T17:17:41.816Z,5.98
2017-11-20T17:19:09.228Z,5.99
2017-11-20T17:20:36.444Z,6.01
2017-11-20T17:22:04.520Z,6.02
2017-11-20T17:23:30.802Z,6.03
2017-11-20T17:24:57.978Z,6.03
2017-11-20T17:26:25.107Z,6.04
2017-11-20T17:27:52.387Z,6.03
2017-11-20T17:29:20.627Z,6.01
2017-11-20T17:30:47.028Z,6.00
2017-11-20T17:32:15.176Z,6.00
2017-11-20T17:33:41.539Z,6.00
2017-11-20T17:35:08.737Z,5.99
2017-11-20T17:36:36.006Z,5.98
2017-11-20T17:38:03.443Z,5.97
2017-11-20T17:39:31.582Z,5.97
2017-11-20T17:40:58.589Z,5.95
2017-11-20T17:42:24.886Z,5.96
2017-11-20T17:43:52.257Z,5.95
2017-11-20T17:45:19.515Z,5.93
2017-11-20T17:46:46.802Z,5.92
2017-11-20T17:48:13.883Z,5.91
2017-11-20T17:49:42.036Z,5.89
2017-11-20T17:51:09.360Z,5.86
2017-11-20T17:52:36.643Z,5.84
2017-11-20T17:54:02.879Z,5.82
2017-11-20T17:55:31.000Z,5.79
2017-11-20T17:56:57.304Z,5.75
2017-11-20T17:58:24.570Z,5.74
2017-11-20T17:59:52.754Z,5.74
2017-11-20T18:01:18.990Z,5.74
2017-11-20T18:02:47.291Z,5.75
2017-11-20T18:04:13.495Z,5.76
2017-11-20T18:05:41.675Z,5.77
2017-11-20T18:07:07.819Z,5.78
2017-11-20T18:08:35.111Z,5.79
2017-11-20T18:10:02.114Z,5.79
2017-11-20T18:11:29.362Z,5.79
2017-11-20T18:12:56.309Z,5.80
2017-11-20T18:14:23.752Z,5.79
2017-11-20T18:15:51.100Z,5.77
2017-11-20T18:17:18.164Z,5.75
2017-11-20T18:18:46.434Z,5.71
2017-11-20T18:20:12.980Z,5.67
2017-11-20T18:21:41.204Z,5.63
2017-11-20T18:23:08.231Z,5.60
2017-11-20T18:24:34.592Z,5.58
2017-11-20T18:26:01.708Z,5.55
2017-11-20T18:27:28.781Z,5.52
2017-11-20T18:28:56.815Z,5.50
2017-11-20T18:30:24.025Z,5.45
2017-11-20T18:31:50.414Z,5.45
2017-11-20T18:33:18.561Z,5.47
2017-11-20T18:34:44.855Z,5.48
2017-11-20T18:36:11.982Z,5.49
2017-11-20T18:37:40.172Z,5.51
2017-11-20T18:39:06.362Z,5.53
2017-11-20T18:40:33.602Z,5.55
2017-11-20T18:42:00.768Z,5.56
2017-11-20T18:43:27.881Z,5.57
2017-11-20T18:44:56.220Z,5.58
2017-11-20T18:46:22.238Z,5.56
2017-11-20T18:47:50.366Z,5.55
2017-11-20T18:49:16.675Z,5.56
2017-11-20T18:50:44.060Z,5.56
2017-11-20T18:52:12.260Z,5.55
2017-11-20T18:53:38.388Z,5.54
2017-11-20T18:55:05.600Z,5.54
2017-11-20T18:56:32.803Z,5.54
2017-11-20T18:58:00.987Z,5.53
2017-11-20T18:59:27.923Z,5.52
2017-11-20T19:00:54.232Z,5.49
2017-11-20T19:02:22.296Z,5.48
2017-11-20T19:03:49.878Z,5.48
2017-11-20T19:05:16.902Z,5.48
2017-11-20T19:06:44.228Z,5.45
2017-11-20T19:08:11.488Z,5.44
2017-11-20T19:09:37.545Z,5.43
2017-11-20T19:11:04.807Z,5.42
2017-11-20T19:12:33.091Z,5.42
2017-11-20T19:13:59.277Z,5.42
2017-11-20T19:15:26.477Z,5.42
2017-11-20T19:16:53.878Z,5.41
2017-11-20T19:18:22.168Z,5.41
2017-11-20T19:19:48.512Z,5.42
2017-11-20T19:21:15.779Z,5.43